createdAt,value
2019-01-28T00:00:49.280Z,125.90
2019-01-28T00:01:25.509Z,132.72
2019-01-28T00:02:01.580Z,135.40
2019-01-28T00:02:37.248Z,127.80
2019-01-28T00:03:13.021Z,126.67
2019-01-28T00:03:48.900Z,132.63
2019-01-28T00:04:24.667Z,140.18
2019-01-28T00:05:00.541Z,134.07
2019-01-28T00:05:36.360Z,126.62
2019-01-28T00:06:12.161Z,135.03
2019-01-28T00:06:47.972Z,119.95
2019-01-28T00:07:24.042Z,134.22
2019-01-28T00:07:59.830Z,118.13
2019-01-28T00:08:35.742Z,114.82
2019-01-28T00:09:11.771Z,126.45
2019-01-28T00:09:47.630Z,112.35
2019-01-28T00:10:23.430Z,124.90
2019-01-28T00:10:59.591Z,110.08
2019-01-28T00:11:35.713Z,116.25
2019-01-28T00:12:11.523Z,125.07
2019-01-28T00:12:47.163Z,117.35
2019-01-28T00:13:22.983Z,107.35
2019-01-28T00:13:58.882Z,123.65
2019-01-28T00:14:34.723Z,119.93
2019-01-28T00:15:10.711Z,115.72
2019-01-28T00:15:48.842Z,119.87
2019-01-28T00:16:24.582Z,130.75
2019-01-28T00:17:00.242Z,113.20
2019-01-28T00:17:36.890Z,121.75
2019-01-28T00:18:14.421Z,112.90
2019-01-28T00:18:50.703Z,126.18
2019-01-28T00:19:26.509Z,121.80
2019-01-28T00:20:02.401Z,126.38
2019-01-28T00:20:38.105Z,126.85
2019-01-28T00:21:13.661Z,133.87
2019-01-28T00:21:49.441Z,118.62
2019-01-28T00:22:25.240Z,129.47
2019-01-28T00:23:00.927Z,122.92
2019-01-28T00:23:36.644Z,127.55
2019-01-28T00:24:12.682Z,131.05
2019-01-28T00:24:48.143Z,133.60
2019-01-28T00:25:24.022Z,126.80
2019-01-28T00:26:00.061Z,126.20
2019-01-28T00:26:35.743Z,126.95
2019-01-28T00:27:11.509Z,131.12
2019-01-28T00:27:47.122Z,135.78
2019-01-28T00:28:22.790Z,125.53
2019-01-28T00:28:59.003Z,133.55
2019-01-28T00:29:34.722Z,126.33
2019-01-28T00:30:10.842Z,128.55
2019-01-28T00:30:46.801Z,125.80
2019-01-28T00:31:22.649Z,124.10
2019-01-28T00:31:58.282Z,122.47
2019-01-28T00:32:34.187Z,131.12
2019-01-28T00:33:10.069Z,134.27
2019-01-28T00:33:46.050Z,127.97
2019-01-28T00:34:21.861Z,124.53
2019-01-28T00:34:57.581Z,131.12
2019-01-28T00:35:33.441Z,121.77
2019-01-28T00:36:09.462Z,123.00
2019-01-28T00:36:45.229Z,125.82
2019-01-28T00:37:20.965Z,133.45
2019-01-28T00:37:56.781Z,125.72
2019-01-28T00:38:32.522Z,117.62
2019-01-28T00:39:10.401Z,125.62
2019-01-28T00:39:46.149Z,118.08
2019-01-28T00:40:22.005Z,118.67
2019-01-28T00:40:57.542Z,123.58
2019-01-28T00:41:33.163Z,117.05
2019-01-28T00:42:09.102Z,127.55
2019-01-28T00:42:44.961Z,115.67
2019-01-28T00:43:20.885Z,115.75
2019-01-28T00:43:56.618Z,123.75
2019-01-28T00:44:32.442Z,116.70
2019-01-28T00:45:10.201Z,114.50
2019-01-28T00:45:45.961Z,107.70
2019-01-28T00:46:21.601Z,114.32
2019-01-28T00:46:57.241Z,114.03
2019-01-28T00:47:33.142Z,118.37
2019-01-28T00:48:08.880Z,116.90
2019-01-28T00:48:44.539Z,112.83
2019-01-28T00:49:20.147Z,121.92
2019-01-28T00:49:55.760Z,108.03
2019-01-28T00:50:31.380Z,102.58
2019-01-28T00:51:07.221Z,111.62
2019-01-28T00:51:42.900Z,120.77
2019-01-28T00:52:18.881Z,116.75
2019-01-28T00:52:54.740Z,111.88
2019-01-28T00:53:30.388Z,111.80
2019-01-28T00:54:06.408Z,115.60
2019-01-28T00:54:42.067Z,105.52
2019-01-28T00:55:17.969Z,110.83
2019-01-28T00:55:53.855Z,103.40
2019-01-28T00:56:29.769Z,105.15
2019-01-28T00:57:05.547Z,101.05
2019-01-28T00:57:41.428Z,110.60
2019-01-28T00:58:17.249Z,112.45
2019-01-28T00:58:53.068Z,111.15
2019-01-28T00:59:28.707Z,111.12
2019-01-28T01:00:04.949Z,114.88
2019-01-28T01:00:40.748Z,101.33
2019-01-28T01:01:16.615Z,114.55
2019-01-28T01:01:52.448Z,123.82
2019-01-28T01:02:28.207Z,122.00
2019-01-28T01:03:04.095Z,116.50
2019-01-28T01:03:40.190Z,118.37
2019-01-28T01:04:16.036Z,114.85
2019-01-28T01:04:51.669Z,123.95
2019-01-28T01:05:27.369Z,123.28
2019-01-28T01:06:03.229Z,116.50
2019-01-28T01:06:38.970Z,110.67
2019-01-28T01:07:15.796Z,121.90
2019-01-28T01:07:51.489Z,120.30
2019-01-28T01:08:27.290Z,122.95
2019-01-28T01:09:02.949Z,111.72
2019-01-28T01:09:38.889Z,124.47
2019-01-28T01:10:14.628Z,124.70
2019-01-28T01:10:50.369Z,126.35
2019-01-28T01:11:25.988Z,126.85
2019-01-28T01:12:01.757Z,123.75
2019-01-28T01:12:37.564Z,127.55
2019-01-28T01:13:13.329Z,115.75
2019-01-28T01:13:49.227Z,117.87
2019-01-28T01:14:24.969Z,130.10
2019-01-28T01:15:00.596Z,131.03
2019-01-28T01:15:36.289Z,123.00
2019-01-28T01:16:12.208Z,125.72
2019-01-28T01:16:47.988Z,121.55
2019-01-28T01:17:23.628Z,109.55
2019-01-28T01:17:59.688Z,115.65
2019-01-28T01:18:35.568Z,106.03
2019-01-28T01:19:11.648Z,115.60
2019-01-28T01:19:47.348Z,109.22
2019-01-28T01:20:22.951Z,104.58
2019-01-28T01:20:58.728Z,119.20
2019-01-28T01:21:34.559Z,106.50
2019-01-28T01:22:10.429Z,108.37
2019-01-28T01:22:46.230Z,117.82
2019-01-28T01:23:22.108Z,108.80
2019-01-28T01:23:57.708Z,105.60
2019-01-28T01:24:33.328Z,118.33
2019-01-28T01:25:10.009Z,120.02
2019-01-28T01:25:45.856Z,111.57
2019-01-28T01:26:21.808Z,110.80
2019-01-28T01:26:58.427Z,115.85
2019-01-28T01:27:34.172Z,106.80
2019-01-28T01:28:10.081Z,107.60
2019-01-28T01:28:45.809Z,106.80
2019-01-28T01:29:21.501Z,123.10
2019-01-28T01:29:57.319Z,121.57
2019-01-28T01:30:33.060Z,110.68
2019-01-28T01:31:09.127Z,110.78
2019-01-28T01:31:44.757Z,111.95
2019-01-28T01:32:20.698Z,112.00
2019-01-28T01:32:56.598Z,118.22
2019-01-28T01:33:32.238Z,105.17
2019-01-28T01:34:08.086Z,111.52
2019-01-28T01:34:44.119Z,103.17
2019-01-28T01:35:19.918Z,98.00
2019-01-28T01:35:55.571Z,102.58
2019-01-28T01:36:31.288Z,111.03
2019-01-28T01:37:06.999Z,98.78
2019-01-28T01:37:42.879Z,106.55
2019-01-28T01:38:18.798Z,113.75
2019-01-28T01:38:54.567Z,115.62
2019-01-28T01:39:30.259Z,121.95
2019-01-28T01:40:07.279Z,130.85
2019-01-28T01:40:43.137Z,133.87
2019-01-28T01:41:19.098Z,136.05
2019-01-28T01:41:54.941Z,141.28
2019-01-28T01:42:30.818Z,138.62
2019-01-28T01:43:06.882Z,159.18
2019-01-28T01:43:42.587Z,128.05
2019-01-28T01:44:18.398Z,147.10
2019-01-28T01:44:54.538Z,122.45
2019-01-28T01:45:30.460Z,127.58
2019-01-28T01:46:06.417Z,128.95
2019-01-28T01:46:42.241Z,106.52
2019-01-28T01:47:17.846Z,114.17
2019-01-28T01:47:53.479Z,101.00
2019-01-28T01:48:29.218Z,114.25
2019-01-28T01:49:05.138Z,120.20
2019-01-28T01:49:41.098Z,112.45
2019-01-28T01:50:16.898Z,113.60
2019-01-28T01:50:52.678Z,120.92
2019-01-28T01:51:28.445Z,130.05
2019-01-28T01:52:04.277Z,126.82
2019-01-28T01:52:39.998Z,121.33
2019-01-28T01:53:15.698Z,131.47
2019-01-28T01:53:51.558Z,107.37
2019-01-28T01:54:27.218Z,117.28
2019-01-28T01:55:03.028Z,111.47
2019-01-28T01:55:38.897Z,124.87
2019-01-28T01:56:14.717Z,121.67
2019-01-28T01:56:50.539Z,114.70
2019-01-28T01:57:26.145Z,115.97
2019-01-28T01:58:02.018Z,122.45
2019-01-28T01:58:37.758Z,120.20
2019-01-28T01:59:13.398Z,117.20
2019-01-28T01:59:49.219Z,99.97
2019-01-28T02:00:25.078Z,110.37
2019-01-28T02:01:00.979Z,103.65
2019-01-28T02:01:36.618Z,110.92
2019-01-28T02:02:12.499Z,110.37
2019-01-28T02:02:48.245Z,105.65
2019-01-28T02:03:23.965Z,106.90
2019-01-28T02:03:59.598Z,108.47
2019-01-28T02:04:35.437Z,106.25
2019-01-28T02:05:11.240Z,103.12
2019-01-28T02:05:46.957Z,109.25
2019-01-28T02:06:22.797Z,119.33
2019-01-28T02:06:58.518Z,115.08
2019-01-28T02:07:34.777Z,104.27
2019-01-28T02:08:10.477Z,101.42
2019-01-28T02:08:46.220Z,100.35
2019-01-28T02:09:22.083Z,106.60
2019-01-28T02:09:57.848Z,104.12
2019-01-28T02:10:33.462Z,139.30
2019-01-28T02:11:09.300Z,128.87
2019-01-28T02:11:45.120Z,147.22
2019-01-28T02:12:20.861Z,137.65
2019-01-28T02:12:56.722Z,140.55
2019-01-28T02:13:32.740Z,135.12
2019-01-28T02:14:08.600Z,129.23
2019-01-28T02:14:44.421Z,129.05
2019-01-28T02:15:21.040Z,119.97
2019-01-28T02:15:56.640Z,127.65
2019-01-28T02:16:32.360Z,108.25
2019-01-28T02:17:07.961Z,101.50
2019-01-28T02:17:43.750Z,106.92
2019-01-28T02:18:19.420Z,119.42
2019-01-28T02:18:55.240Z,139.95
2019-01-28T02:19:30.981Z,142.95
2019-01-28T02:20:07.359Z,144.97
2019-01-28T02:20:43.040Z,141.88
2019-01-28T02:21:19.819Z,132.78
2019-01-28T02:21:55.480Z,126.92
2019-01-28T02:22:31.180Z,130.05
2019-01-28T02:23:07.019Z,129.55
2019-01-28T02:23:42.899Z,139.18
2019-01-28T02:24:18.639Z,145.53
2019-01-28T02:24:54.359Z,138.32
2019-01-28T02:25:30.060Z,143.60
2019-01-28T02:26:05.939Z,139.00
2019-01-28T02:26:41.759Z,140.18
2019-01-28T02:27:17.519Z,146.75
2019-01-28T02:27:53.199Z,140.32
2019-01-28T02:28:29.779Z,130.72
2019-01-28T02:29:05.619Z,129.75
2019-01-28T02:29:41.259Z,119.75
2019-01-28T02:30:18.541Z,123.62
2019-01-28T02:30:54.698Z,125.15
2019-01-28T02:31:30.318Z,131.10
2019-01-28T02:32:06.037Z,116.17
2019-01-28T02:32:41.998Z,122.42
2019-01-28T02:33:17.659Z,109.60
2019-01-28T02:33:53.557Z,120.37
2019-01-28T02:34:29.438Z,115.60
2019-01-28T02:35:06.058Z,113.17
2019-01-28T02:35:41.821Z,118.08
2019-01-28T02:36:17.583Z,117.10
2019-01-28T02:36:53.266Z,121.10
2019-01-28T02:37:28.997Z,117.08
2019-01-28T02:38:04.684Z,111.22
2019-01-28T02:38:40.498Z,109.90
2019-01-28T02:39:16.259Z,114.82
2019-01-28T02:39:51.858Z,109.00
2019-01-28T02:40:27.659Z,104.55
2019-01-28T02:41:03.459Z,99.37
2019-01-28T02:41:39.459Z,95.10
2019-01-28T02:42:15.360Z,106.55
2019-01-28T02:42:50.938Z,108.05
2019-01-28T02:43:26.760Z,101.20
2019-01-28T02:44:02.380Z,95.57
2019-01-28T02:44:38.378Z,94.20
2019-01-28T02:45:14.546Z,92.62
2019-01-28T02:45:50.299Z,99.95
2019-01-28T02:46:26.118Z,101.35
2019-01-28T02:47:01.777Z,94.97
2019-01-28T02:47:37.498Z,105.80
2019-01-28T02:48:13.237Z,113.45
2019-01-28T02:48:48.899Z,111.77
2019-01-28T02:49:24.759Z,98.05
2019-01-28T02:50:00.618Z,110.12
2019-01-28T02:50:36.477Z,107.58
2019-01-28T02:51:12.158Z,106.60
2019-01-28T02:51:48.060Z,111.00
2019-01-28T02:52:23.938Z,93.47
2019-01-28T02:52:59.678Z,95.87
2019-01-28T02:53:35.378Z,95.55
2019-01-28T02:54:11.322Z,102.47
2019-01-28T02:54:46.957Z,106.20
2019-01-28T02:55:22.994Z,104.60
2019-01-28T02:55:58.698Z,98.47
2019-01-28T02:56:34.469Z,93.85
2019-01-28T02:57:10.185Z,100.20
2019-01-28T02:57:47.299Z,100.18
2019-01-28T02:58:22.878Z,105.55
2019-01-28T02:58:59.001Z,100.18
2019-01-28T02:59:35.499Z,95.60
2019-01-28T03:00:17.466Z,91.28
2019-01-28T03:00:53.398Z,92.40
2019-01-28T03:01:29.120Z,96.17
2019-01-28T03:02:05.123Z,94.95
2019-01-28T03:02:40.958Z,88.85
2019-01-28T03:03:17.021Z,99.72
2019-01-28T03:03:52.778Z,86.70
2019-01-28T03:04:28.537Z,84.95
2019-01-28T03:05:04.566Z,88.52
2019-01-28T03:05:40.297Z,92.33
2019-01-28T03:06:16.164Z,99.92
2019-01-28T03:06:52.122Z,92.08
2019-01-28T03:07:27.862Z,87.65
2019-01-28T03:08:03.750Z,97.30
2019-01-28T03:08:39.666Z,93.92
2019-01-28T03:09:15.442Z,94.52
2019-01-28T03:09:51.301Z,102.62
2019-01-28T03:10:27.085Z,83.12
2019-01-28T03:11:03.003Z,92.50
2019-01-28T03:11:38.927Z,89.07
2019-01-28T03:12:15.281Z,100.60
2019-01-28T03:12:51.262Z,101.00
2019-01-28T03:13:26.891Z,86.45
2019-01-28T03:14:02.642Z,104.43
2019-01-28T03:14:38.443Z,106.63
2019-01-28T03:15:14.863Z,106.30
2019-01-28T03:15:50.462Z,88.40
2019-01-28T03:16:26.224Z,96.12
2019-01-28T03:17:11.161Z,104.05
2019-01-28T03:17:47.301Z,99.67
2019-01-28T03:18:23.000Z,85.20
2019-01-28T03:18:58.807Z,82.08
2019-01-28T03:19:34.427Z,86.55
2019-01-28T03:20:11.443Z,94.00
2019-01-28T03:20:47.400Z,106.43
2019-01-28T03:21:22.982Z,115.65
2019-01-28T03:21:58.681Z,101.90
2019-01-28T03:22:34.448Z,108.25
2019-01-28T03:23:11.200Z,99.35
2019-01-28T03:23:47.242Z,100.72
2019-01-28T03:24:22.993Z,107.80
2019-01-28T03:24:58.813Z,122.90
2019-01-28T03:25:34.764Z,128.25
2019-01-28T03:26:10.405Z,135.28
2019-01-28T03:26:46.346Z,134.93
2019-01-28T03:27:22.065Z,113.83
2019-01-28T03:27:57.984Z,99.35
2019-01-28T03:28:33.708Z,96.10
2019-01-28T03:29:09.470Z,106.35
2019-01-28T03:29:45.129Z,101.15
2019-01-28T03:30:22.829Z,114.22
2019-01-28T03:30:58.591Z,107.03
2019-01-28T03:31:34.369Z,114.60
2019-01-28T03:32:10.157Z,117.22
2019-01-28T03:32:46.041Z,92.40
2019-01-28T03:33:22.050Z,100.80
2019-01-28T03:33:57.828Z,103.70
2019-01-28T03:34:33.509Z,123.40
2019-01-28T03:35:10.374Z,125.80
2019-01-28T03:35:46.088Z,125.58
2019-01-28T03:36:21.908Z,123.42
2019-01-28T03:36:57.729Z,112.88
2019-01-28T03:37:33.449Z,115.40
2019-01-28T03:38:12.122Z,132.47
2019-01-28T03:38:48.005Z,127.10
2019-01-28T03:39:23.804Z,120.97
2019-01-28T03:39:59.560Z,127.00
2019-01-28T03:40:35.368Z,123.35
2019-01-28T03:41:11.281Z,130.43
2019-01-28T03:41:47.168Z,128.18
2019-01-28T03:42:23.020Z,134.25
2019-01-28T03:42:58.716Z,122.62
2019-01-28T03:43:34.489Z,116.82
2019-01-28T03:44:10.401Z,125.75
2019-01-28T03:44:45.840Z,115.57
2019-01-28T03:45:22.275Z,119.05
2019-01-28T03:45:57.952Z,108.37
2019-01-28T03:46:33.235Z,108.75
2019-01-28T03:47:08.714Z,102.78
2019-01-28T03:47:44.134Z,96.85
2019-01-28T03:48:19.404Z,98.07
2019-01-28T03:48:54.682Z,99.00
2019-01-28T03:49:30.464Z,102.80
2019-01-28T03:50:06.495Z,100.33
2019-01-28T03:50:42.183Z,95.92
2019-01-28T03:51:17.882Z,90.90
2019-01-28T03:51:53.483Z,104.90
2019-01-28T03:52:29.147Z,100.50
2019-01-28T03:53:05.159Z,91.25
2019-01-28T03:53:40.987Z,99.55
2019-01-28T03:54:16.799Z,105.17
2019-01-28T03:54:52.639Z,100.05
2019-01-28T03:55:28.489Z,97.97
2019-01-28T03:56:04.379Z,102.07
2019-01-28T03:56:40.278Z,98.65
2019-01-28T03:57:16.259Z,87.12
2019-01-28T03:57:52.039Z,88.58
2019-01-28T03:58:27.680Z,88.85
2019-01-28T03:59:03.401Z,80.10
2019-01-28T03:59:39.220Z,79.45
2019-01-28T04:00:23.442Z,80.40
2019-01-28T04:00:59.455Z,76.85
2019-01-28T04:01:35.238Z,89.60
2019-01-28T04:02:10.920Z,92.02
2019-01-28T04:02:46.578Z,83.37
2019-01-28T04:03:22.366Z,76.87
2019-01-28T04:03:58.062Z,75.28
2019-01-28T04:04:33.701Z,83.95
2019-01-28T04:05:10.280Z,73.10
2019-01-28T04:05:46.089Z,77.08
2019-01-28T04:06:21.798Z,76.87
2019-01-28T04:06:57.677Z,73.42
2019-01-28T04:07:33.398Z,75.87
2019-01-28T04:08:09.320Z,73.97
2019-01-28T04:08:45.081Z,84.15
2019-01-28T04:09:20.998Z,82.97
2019-01-28T04:09:56.898Z,77.97
2019-01-28T04:10:32.458Z,100.55
2019-01-28T04:11:08.537Z,90.28
2019-01-28T04:11:44.280Z,92.75
2019-01-28T04:12:19.900Z,79.00
2019-01-28T04:12:55.945Z,84.75
2019-01-28T04:13:31.819Z,81.85
2019-01-28T04:14:08.761Z,88.10
2019-01-28T04:14:44.639Z,80.25
2019-01-28T04:15:21.119Z,86.75
2019-01-28T04:15:56.947Z,100.12
2019-01-28T04:16:32.739Z,102.72
2019-01-28T04:17:08.357Z,95.67
2019-01-28T04:17:44.138Z,85.85
2019-01-28T04:18:20.039Z,92.57
2019-01-28T04:18:55.937Z,90.03
2019-01-28T04:19:31.957Z,79.47
2019-01-28T04:20:08.517Z,88.75
2019-01-28T04:20:44.215Z,87.30
2019-01-28T04:21:20.486Z,81.90
2019-01-28T04:21:56.218Z,64.72
2019-01-28T04:22:31.959Z,69.75
2019-01-28T04:23:07.706Z,61.75
2019-01-28T04:23:43.746Z,68.45
2019-01-28T04:24:19.378Z,69.15
2019-01-28T04:24:55.159Z,70.00
2019-01-28T04:25:30.878Z,82.62
2019-01-28T04:26:06.420Z,87.45
2019-01-28T04:26:41.937Z,90.70
2019-01-28T04:27:17.658Z,88.45
2019-01-28T04:27:53.967Z,88.27
2019-01-28T04:28:29.800Z,79.77
2019-01-28T04:29:05.937Z,81.22
2019-01-28T04:29:41.596Z,92.12
2019-01-28T04:30:19.406Z,78.78
2019-01-28T04:30:55.170Z,74.62
2019-01-28T04:31:30.790Z,76.10
2019-01-28T04:32:06.757Z,80.40
2019-01-28T04:32:42.370Z,86.15
2019-01-28T04:33:18.231Z,91.70
2019-01-28T04:33:54.030Z,79.97
2019-01-28T04:34:29.857Z,78.75
2019-01-28T04:35:06.210Z,83.82
2019-01-28T04:35:41.994Z,90.50
2019-01-28T04:36:17.692Z,103.83
2019-01-28T04:36:53.630Z,99.50
2019-01-28T04:37:29.393Z,98.50
2019-01-28T04:38:05.233Z,98.07
2019-01-28T04:38:40.914Z,96.45
2019-01-28T04:39:16.678Z,96.20
2019-01-28T04:39:52.677Z,87.62
2019-01-28T04:40:28.530Z,102.82
2019-01-28T04:41:04.343Z,91.02
2019-01-28T04:41:40.123Z,94.50
2019-01-28T04:42:15.965Z,96.95
2019-01-28T04:42:51.776Z,94.65
2019-01-28T04:43:27.490Z,151.22
2019-01-28T04:44:03.469Z,219.85
2019-01-28T04:44:38.990Z,111.15
2019-01-28T04:45:16.533Z,97.40
2019-01-28T04:45:52.351Z,96.05
2019-01-28T04:46:28.151Z,93.07
2019-01-28T04:47:03.970Z,105.25
2019-01-28T04:47:39.710Z,94.03
2019-01-28T04:48:15.412Z,91.90
2019-01-28T04:48:51.413Z,93.78
2019-01-28T04:49:27.250Z,100.40
2019-01-28T04:50:03.151Z,106.75
2019-01-28T04:50:39.050Z,97.27
2019-01-28T04:51:14.725Z,100.00
2019-01-28T04:51:50.484Z,97.53
2019-01-28T04:52:26.204Z,95.22
2019-01-28T04:53:02.003Z,90.55
2019-01-28T04:53:37.845Z,87.12
2019-01-28T04:54:13.525Z,97.00
2019-01-28T04:54:49.085Z,92.97
2019-01-28T04:55:24.923Z,90.72
2019-01-28T04:56:00.625Z,92.55
2019-01-28T04:56:36.261Z,95.28
2019-01-28T04:57:11.941Z,110.85
2019-01-28T04:57:47.784Z,123.97
2019-01-28T04:58:23.621Z,96.00
2019-01-28T04:58:59.483Z,96.17
2019-01-28T04:59:35.082Z,89.17
2019-01-28T05:00:21.882Z,97.42
2019-01-28T05:00:57.866Z,100.30
2019-01-28T05:01:33.739Z,99.75
2019-01-28T05:02:09.598Z,92.75
2019-01-28T05:02:45.546Z,87.20
2019-01-28T05:03:21.481Z,90.07
2019-01-28T05:03:57.298Z,83.58
2019-01-28T05:04:33.018Z,86.02
2019-01-28T05:05:09.157Z,91.53
2019-01-28T05:05:44.940Z,84.42
2019-01-28T05:06:20.678Z,86.72
2019-01-28T05:06:56.519Z,85.12
2019-01-28T05:07:32.578Z,94.13
2019-01-28T05:08:08.145Z,101.40
2019-01-28T05:08:43.819Z,108.67
2019-01-28T05:09:19.658Z,134.18
2019-01-28T05:09:55.403Z,135.20
2019-01-28T05:10:30.748Z,128.68
2019-01-28T05:11:06.121Z,136.85
2019-01-28T05:11:41.329Z,131.37
2019-01-28T05:12:16.693Z,116.17
2019-01-28T05:12:51.901Z,132.25
2019-01-28T05:13:27.259Z,123.90
2019-01-28T05:14:02.454Z,132.57
2019-01-28T05:14:37.778Z,127.87
2019-01-28T05:15:14.023Z,125.27
2019-01-28T05:15:49.581Z,109.07
2019-01-28T05:16:24.863Z,119.10
2019-01-28T05:17:00.126Z,116.93
2019-01-28T05:17:35.598Z,110.25
2019-01-28T05:18:10.918Z,116.53
2019-01-28T05:18:46.666Z,104.50
2019-01-28T05:19:22.460Z,115.52
2019-01-28T05:19:58.280Z,118.42
2019-01-28T05:20:33.919Z,113.42
2019-01-28T05:21:09.518Z,122.15
2019-01-28T05:21:45.157Z,122.85
2019-01-28T05:22:20.898Z,113.45
2019-01-28T05:22:56.645Z,121.13
2019-01-28T05:23:32.558Z,113.57
2019-01-28T05:24:08.239Z,117.25
2019-01-28T05:24:44.058Z,107.75
2019-01-28T05:25:19.844Z,114.52
2019-01-28T05:25:55.597Z,112.40
2019-01-28T05:26:31.499Z,112.90
2019-01-28T05:27:07.185Z,116.20
2019-01-28T05:27:43.119Z,108.37
2019-01-28T05:28:18.858Z,115.88
2019-01-28T05:28:54.798Z,114.72
2019-01-28T05:29:30.418Z,117.08
2019-01-28T05:30:07.819Z,110.48
2019-01-28T05:30:43.601Z,116.10
2019-01-28T05:31:19.341Z,104.78
2019-01-28T05:31:55.043Z,104.83
2019-01-28T05:32:30.762Z,104.25
2019-01-28T05:33:06.591Z,111.03
2019-01-28T05:33:42.759Z,103.87
2019-01-28T05:34:19.326Z,104.95
2019-01-28T05:34:55.147Z,101.95
2019-01-28T05:35:31.028Z,112.52
2019-01-28T05:36:06.846Z,104.75
2019-01-28T05:36:42.586Z,106.32
2019-01-28T05:37:18.327Z,111.68
2019-01-28T05:37:54.337Z,109.67
2019-01-28T05:38:29.988Z,104.75
2019-01-28T05:39:09.064Z,106.70
2019-01-28T05:39:44.914Z,103.90
2019-01-28T05:40:22.727Z,109.27
2019-01-28T05:40:58.492Z,102.85
2019-01-28T05:41:34.447Z,107.72
2019-01-28T05:42:10.365Z,104.55
2019-01-28T05:42:46.508Z,108.12
2019-01-28T05:43:22.285Z,117.67
2019-01-28T05:43:57.986Z,107.63
2019-01-28T05:44:33.822Z,103.38
2019-01-28T05:45:11.050Z,106.03
2019-01-28T05:45:46.731Z,107.63
2019-01-28T05:46:22.731Z,103.10
2019-01-28T05:46:58.470Z,109.80
2019-01-28T05:47:34.357Z,105.52
2019-01-28T05:48:10.090Z,122.58
2019-01-28T05:48:45.790Z,112.60
2019-01-28T05:49:21.592Z,111.12
2019-01-28T05:49:57.518Z,106.75
2019-01-28T05:50:33.490Z,108.60
2019-01-28T05:51:09.253Z,113.05
2019-01-28T05:51:45.035Z,112.00
2019-01-28T05:52:20.800Z,103.32
2019-01-28T05:52:56.580Z,111.52
2019-01-28T05:53:32.217Z,108.17
2019-01-28T05:54:07.994Z,102.10
2019-01-28T05:54:43.843Z,109.95
2019-01-28T05:55:20.003Z,109.48
2019-01-28T05:55:55.694Z,104.05
2019-01-28T05:56:31.596Z,99.67
2019-01-28T05:57:08.676Z,107.25
2019-01-28T05:57:44.734Z,108.17
2019-01-28T05:58:20.415Z,109.95
2019-01-28T05:58:56.074Z,95.35
2019-01-28T05:59:31.994Z,92.45
2019-01-28T06:00:10.239Z,99.13
2019-01-28T06:00:46.374Z,90.30
2019-01-28T06:01:22.243Z,102.20
2019-01-28T06:01:58.155Z,96.37
2019-01-28T06:02:33.955Z,97.15
2019-01-28T06:03:09.703Z,94.52
2019-01-28T06:03:45.316Z,98.42
2019-01-28T06:04:21.115Z,104.23
2019-01-28T06:04:57.297Z,110.32
2019-01-28T06:05:33.118Z,106.07
2019-01-28T06:06:08.753Z,106.92
2019-01-28T06:06:44.485Z,110.22
2019-01-28T06:07:20.253Z,101.92
2019-01-28T06:07:56.025Z,92.15
2019-01-28T06:08:31.806Z,104.07
2019-01-28T06:09:10.484Z,113.20
2019-01-28T06:09:45.765Z,95.00
2019-01-28T06:10:21.305Z,101.27
2019-01-28T06:10:56.885Z,103.12
2019-01-28T06:11:32.445Z,99.28
2019-01-28T06:12:07.785Z,101.65
2019-01-28T06:12:43.005Z,98.97
2019-01-28T06:13:18.344Z,98.30
2019-01-28T06:13:53.685Z,108.92
2019-01-28T06:14:29.105Z,137.55
2019-01-28T06:15:05.747Z,139.77
2019-01-28T06:15:41.788Z,140.73
2019-01-28T06:16:17.550Z,120.13
2019-01-28T06:16:53.208Z,126.07
2019-01-28T06:17:28.972Z,129.65
2019-01-28T06:18:05.277Z,135.82
2019-01-28T06:18:41.228Z,132.75
2019-01-28T06:19:17.009Z,137.62
2019-01-28T06:19:52.930Z,135.28
2019-01-28T06:20:28.735Z,125.10
2019-01-28T06:21:04.780Z,119.13
2019-01-28T06:21:40.729Z,131.27
2019-01-28T06:22:16.587Z,145.85
2019-01-28T06:22:52.397Z,138.57
2019-01-28T06:23:28.269Z,154.10
2019-01-28T06:24:03.949Z,148.93
2019-01-28T06:24:39.848Z,166.32
2019-01-28T06:25:17.257Z,158.50
2019-01-28T06:25:53.075Z,157.62
2019-01-28T06:26:29.109Z,180.78
2019-01-28T06:27:05.244Z,181.85
2019-01-28T06:27:41.287Z,188.25
2019-01-28T06:28:16.979Z,179.65
2019-01-28T06:28:53.006Z,192.13
2019-01-28T06:29:28.683Z,203.80
2019-01-28T06:30:05.959Z,214.02
2019-01-28T06:30:41.778Z,234.10
2019-01-28T06:31:17.766Z,234.77
2019-01-28T06:31:53.448Z,274.42
2019-01-28T06:32:29.163Z,277.68
2019-01-28T06:33:05.346Z,271.87
2019-01-28T06:33:41.291Z,257.50
2019-01-28T06:34:17.485Z,238.12
2019-01-28T06:34:53.382Z,251.52
2019-01-28T06:35:29.557Z,232.18
2019-01-28T06:36:05.561Z,243.78
2019-01-28T06:36:41.881Z,233.15
2019-01-28T06:37:18.273Z,217.97
2019-01-28T06:37:54.242Z,230.83
2019-01-28T06:38:30.114Z,230.70
2019-01-28T06:39:09.873Z,231.17
2019-01-28T06:39:46.314Z,240.28
2019-01-28T06:40:27.313Z,229.97
2019-01-28T06:41:03.715Z,234.72
2019-01-28T06:41:40.081Z,208.93
2019-01-28T06:42:17.074Z,202.78
2019-01-28T06:42:53.673Z,201.40
2019-01-28T06:43:30.114Z,190.97
2019-01-28T06:44:06.432Z,199.75
2019-01-28T06:44:42.914Z,193.80
2019-01-28T06:45:19.226Z,195.35
2019-01-28T06:45:55.140Z,190.55
2019-01-28T06:46:30.868Z,204.05
2019-01-28T06:47:06.660Z,221.75
2019-01-28T06:47:46.834Z,218.97
2019-01-28T06:48:20.322Z,219.93
2019-01-28T06:48:56.060Z,228.55
2019-01-28T06:49:32.136Z,218.60
2019-01-28T06:50:09.169Z,219.85
2019-01-28T06:50:45.004Z,213.95
2019-01-28T06:51:20.950Z,204.00
2019-01-28T06:51:56.750Z,207.77
2019-01-28T06:52:32.608Z,214.68
2019-01-28T06:53:08.613Z,227.78
2019-01-28T06:53:44.609Z,214.70
2019-01-28T06:54:20.580Z,209.60
2019-01-28T06:54:56.440Z,198.35
2019-01-28T06:55:32.329Z,214.23
2019-01-28T06:56:08.267Z,200.75
2019-01-28T06:56:43.948Z,199.07
2019-01-28T06:57:19.711Z,202.70
2019-01-28T06:57:55.914Z,199.15
2019-01-28T06:58:31.527Z,216.15
2019-01-28T06:59:07.286Z,215.03
2019-01-28T06:59:42.946Z,224.18
2019-01-28T07:00:30.816Z,226.70
2019-01-28T07:01:06.966Z,217.97
2019-01-28T07:01:42.848Z,221.18
2019-01-28T07:02:18.876Z,226.27
2019-01-28T07:02:54.922Z,224.60
2019-01-28T07:03:30.689Z,222.40
2019-01-28T07:04:06.916Z,211.22
2019-01-28T07:04:42.777Z,210.38
2019-01-28T07:05:18.510Z,193.22
2019-01-28T07:05:54.892Z,202.60
2019-01-28T07:06:30.688Z,191.92
2019-01-28T07:07:06.418Z,200.93
2019-01-28T07:07:42.651Z,212.68
2019-01-28T07:08:18.428Z,192.98
2019-01-28T07:08:54.098Z,205.27
2019-01-28T07:09:30.010Z,203.67
2019-01-28T07:10:07.032Z,206.45
2019-01-28T07:10:42.885Z,211.57
2019-01-28T07:11:18.788Z,203.95
2019-01-28T07:11:54.744Z,212.88
2019-01-28T07:12:30.812Z,210.70
2019-01-28T07:13:06.808Z,228.42
2019-01-28T07:13:42.511Z,225.50
2019-01-28T07:14:18.244Z,224.12
2019-01-28T07:14:54.220Z,216.33
2019-01-28T07:15:30.032Z,238.30
2019-01-28T07:16:05.812Z,224.15
2019-01-28T07:16:41.785Z,223.72
2019-01-28T07:17:17.614Z,224.52
2019-01-28T07:17:55.019Z,200.10
2019-01-28T07:18:30.784Z,222.15
2019-01-28T07:19:06.829Z,217.47
2019-01-28T07:19:42.689Z,203.73
2019-01-28T07:20:21.001Z,196.35
2019-01-28T07:20:56.823Z,164.62
2019-01-28T07:21:32.745Z,171.15
2019-01-28T07:22:08.770Z,165.12
2019-01-28T07:22:45.521Z,179.15
2019-01-28T07:23:21.601Z,147.15
2019-01-28T07:23:57.561Z,173.50
2019-01-28T07:24:33.181Z,187.20
2019-01-28T07:25:09.148Z,199.40
2019-01-28T07:25:45.043Z,198.97
2019-01-28T07:26:21.038Z,159.22
2019-01-28T07:26:57.663Z,181.63
2019-01-28T07:27:33.560Z,184.45
2019-01-28T07:28:09.321Z,183.60
2019-01-28T07:28:45.201Z,181.45
2019-01-28T07:29:21.100Z,192.45
2019-01-28T07:29:56.882Z,173.35
2019-01-28T07:30:37.282Z,173.95
2019-01-28T07:31:13.327Z,165.65
2019-01-28T07:31:49.407Z,172.80
2019-01-28T07:32:25.300Z,183.12